sensor_id;sensor_type;location;lat;lon;timestamp;temperature;humidity
27492;DHT22;14927;51.210;6.838;2022-10-31T00:02:06;18.60;62.00
27492;DHT22;14927;51.210;6.838;2022-10-31T00:04:51;18.60;62.10
27492;DHT22;14927;51.210;6.838;2022-10-31T00:07:36;18.60;62.10
27492;DHT22;14927;51.210;6.838;2022-10-31T00:10:20;18.50;62.10
27492;DHT22;14927;51.210;6.838;2022-10-31T00:13:06;18.50;62.20
27492;DHT22;14927;51.210;6.838;2022-10-31T00:15:50;18.50;62.10
27492;DHT22;14927;51.210;6.838;2022-10-31T00:18:41;18.50;62.10
27492;DHT22;14927;51.210;6.838;2022-10-31T00:21:26;18.50;62.20
27492;DHT22;14927;51.210;6.838;2022-10-31T00:24:12;18.50;62.20
27492;DHT22;14927;51.210;6.838;2022-10-31T00:26:56;18.40;62.30
27492;DHT22;14927;51.210;6.838;2022-10-31T00:29:41;18.40;62.30
27492;DHT22;14927;51.210;6.838;2022-10-31T00:32:28;18.40;62.30
27492;DHT22;14927;51.210;6.838;2022-10-31T00:35:14;18.40;62.50
27492;DHT22;14927;51.210;6.838;2022-10-31T00:37:59;18.40;62.50
27492;DHT22;14927;51.210;6.838;2022-10-31T00:40:43;18.40;62.60
27492;DHT22;14927;51.210;6.838;2022-10-31T00:43:28;18.30;62.70
27492;DHT22;14927;51.210;6.838;2022-10-31T00:46:13;18.40;62.90
27492;DHT22;14927;51.210;6.838;2022-10-31T00:48:57;18.30;63.00
27492;DHT22;14927;51.210;6.838;2022-10-31T00:51:42;18.30;63.10
27492;DHT22;14927;51.210;6.838;2022-10-31T00:54:27;18.30;63.10
27492;DHT22;14927;51.210;6.838;2022-10-31T00:57:11;18.30;63.20
27492;DHT22;14927;51.210;6.838;2022-10-31T00:59:56;18.30;63.30
27492;DHT22;14927;51.210;6.838;2022-10-31T01:02:40;18.30;63.30
27492;DHT22;14927;51.210;6.838;2022-10-31T01:05:25;18.30;63.40
27492;DHT22;14927;51.210;6.838;2022-10-31T01:08:10;18.30;63.50
27492;DHT22;14927;51.210;6.838;2022-10-31T01:11:03;18.30;63.60
27492;DHT22;14927;51.210;6.838;2022-10-31T01:13:50;18.30;64.60
27492;DHT22;14927;51.210;6.838;2022-10-31T01:16:35;18.30;63.70
27492;DHT22;14927;51.210;6.838;2022-10-31T01:19:20;18.30;63.70
27492;DHT22;14927;51.210;6.838;2022-10-31T01:22:05;18.30;63.60
27492;DHT22;14927;51.210;6.838;2022-10-31T01:24:49;18.30;63.60
27492;DHT22;14927;51.210;6.838;2022-10-31T01:27:34;18.30;63.70
27492;DHT22;14927;51.210;6.838;2022-10-31T01:30:18;18.30;63.60
27492;DHT22;14927;51.210;6.838;2022-10-31T01:33:03;18.30;63.50
27492;DHT22;14927;51.210;6.838;2022-10-31T01:35:48;18.30;63.50
27492;DHT22;14927;51.210;6.838;2022-10-31T01:38:32;18.30;63.50
27492;DHT22;14927;51.210;6.838;2022-10-31T01:41:22;18.30;63.50
27492;DHT22;14927;51.210;6.838;2022-10-31T01:47:16;18.20;63.50
27492;DHT22;14927;51.210;6.838;2022-10-31T01:50:05;18.20;63.70
27492;DHT22;14927;51.210;6.838;2022-10-31T01:52:55;18.20;63.50
27492;DHT22;14927;51.210;6.838;2022-10-31T01:55:42;18.20;63.50
27492;DHT22;14927;51.210;6.838;2022-10-31T01:58:30;18.20;63.70
27492;DHT22;14927;51.210;6.838;2022-10-31T02:01:16;18.10;63.50
27492;DHT22;14927;51.210;6.838;2022-10-31T02:04:00;18.10;63.60
27492;DHT22;14927;51.210;6.838;2022-10-31T02:06:59;18.10;63.70
27492;DHT22;14927;51.210;6.838;2022-10-31T02:09:51;18.10;63.90
27492;DHT22;14927;51.210;6.838;2022-10-31T02:12:37;18.10;63.70
27492;DHT22;14927;51.210;6.838;2022-10-31T02:15:22;18.10;63.80
27492;DHT22;14927;51.210;6.838;2022-10-31T02:18:07;18.10;63.80
27492;DHT22;14927;51.210;6.838;2022-10-31T02:31:14;18.00;64.20
27492;DHT22;14927;51.210;6.838;2022-10-31T02:34:27;18.00;64.20
27492;DHT22;14927;51.210;6.838;2022-10-31T02:43:22;17.90;64.20
27492;DHT22;14927;51.210;6.838;2022-10-31T02:52:32;17.90;64.60
27492;DHT22;14927;51.210;6.838;2022-10-31T02:58:15;17.90;64.90
27492;DHT22;14927;51.210;6.838;2022-10-31T03:04:24;17.90;65.10
27492;DHT22;14927;51.210;6.838;2022-10-31T03:13:39;17.90;65.20
27492;DHT22;14927;51.210;6.838;2022-10-31T03:16:36;17.90;65.00
27492;DHT22;14927;51.210;6.838;2022-10-31T03:19:33;17.90;66.00
27492;DHT22;14927;51.210;6.838;2022-10-31T03:22:23;17.90;65.20
27492;DHT22;14927;51.210;6.838;2022-10-31T03:25:09;17.90;65.10
27492;DHT22;14927;51.210;6.838;2022-10-31T03:27:55;17.90;65.10
27492;DHT22;14927;51.210;6.838;2022-10-31T03:30:43;17.90;65.10
27492;DHT22;14927;51.210;6.838;2022-10-31T03:33:31;17.90;65.10
27492;DHT22;14927;51.210;6.838;2022-10-31T03:36:18;17.90;65.20
27492;DHT22;14927;51.210;6.838;2022-10-31T03:39:05;17.90;65.20
27492;DHT22;14927;51.210;6.838;2022-10-31T03:42:00;17.90;65.20
27492;DHT22;14927;51.210;6.838;2022-10-31T03:45:10;17.90;65.30
27492;DHT22;14927;51.210;6.838;2022-10-31T03:48:00;17.90;65.20
27492;DHT22;14927;51.210;6.838;2022-10-31T03:53:55;17.90;65.00
27492;DHT22;14927;51.210;6.838;2022-10-31T03:56:50;17.80;65.30
27492;DHT22;14927;51.210;6.838;2022-10-31T03:59:40;17.80;65.20
27492;DHT22;14927;51.210;6.838;2022-10-31T04:02:30;17.80;65.10
27492;DHT22;14927;51.210;6.838;2022-10-31T04:05:17;17.80;65.10
27492;DHT22;14927;51.210;6.838;2022-10-31T04:08:04;17.80;65.20
27492;DHT22;14927;51.210;6.838;2022-10-31T04:10:53;17.80;65.20
27492;DHT22;14927;51.210;6.838;2022-10-31T04:13:39;17.80;65.30
27492;DHT22;14927;51.210;6.838;2022-10-31T04:16:25;17.80;65.30
27492;DHT22;14927;51.210;6.838;2022-10-31T04:19:14;17.80;65.50
27492;DHT22;14927;51.210;6.838;2022-10-31T04:21:59;17.80;65.60
27492;DHT22;14927;51.210;6.838;2022-10-31T04:24:43;17.70;65.50
27492;DHT22;14927;51.210;6.838;2022-10-31T04:27:28;17.70;65.50
27492;DHT22;14927;51.210;6.838;2022-10-31T04:30:12;17.70;65.60
27492;DHT22;14927;51.210;6.838;2022-10-31T04:32:57;17.70;65.70
27492;DHT22;14927;51.210;6.838;2022-10-31T04:35:41;17.70;65.60
27492;DHT22;14927;51.210;6.838;2022-10-31T04:38:26;17.70;65.60
27492;DHT22;14927;51.210;6.838;2022-10-31T04:41:11;17.70;65.70
27492;DHT22;14927;51.210;6.838;2022-10-31T04:43:55;17.70;66.30
27492;DHT22;14927;51.210;6.838;2022-10-31T04:46:40;17.70;65.50
27492;DHT22;14927;51.210;6.838;2022-10-31T04:49:25;17.70;65.50
27492;DHT22;14927;51.210;6.838;2022-10-31T04:52:09;17.70;65.50
27492;DHT22;14927;51.210;6.838;2022-10-31T04:54:54;17.70;65.50
27492;DHT22;14927;51.210;6.838;2022-10-31T04:57:49;17.70;65.50
27492;DHT22;14927;51.210;6.838;2022-10-31T05:00:34;17.60;65.50
27492;DHT22;14927;51.210;6.838;2022-10-31T05:03:19;17.60;65.50
27492;DHT22;14927;51.210;6.838;2022-10-31T05:06:04;17.60;65.50
27492;DHT22;14927;51.210;6.838;2022-10-31T05:08:48;17.60;65.50
27492;DHT22;14927;51.210;6.838;2022-10-31T05:11:33;17.60;65.50
27492;DHT22;14927;51.210;6.838;2022-10-31T05:14:17;17.60;65.50
27492;DHT22;14927;51.210;6.838;2022-10-31T05:17:02;17.60;65.50
27492;DHT22;14927;51.210;6.838;2022-10-31T05:19:46;17.50;65.60
27492;DHT22;14927;51.210;6.838;2022-10-31T05:22:31;17.50;65.60
27492;DHT22;14927;51.210;6.838;2022-10-31T05:25:17;17.50;65.70
27492;DHT22;14927;51.210;6.838;2022-10-31T05:28:03;17.50;65.80
27492;DHT22;14927;51.210;6.838;2022-10-31T05:30:47;17.50;65.90
27492;DHT22;14927;51.210;6.838;2022-10-31T05:33:33;17.40;65.90
27492;DHT22;14927;51.210;6.838;2022-10-31T05:36:18;17.50;66.00
27492;DHT22;14927;51.210;6.838;2022-10-31T05:39:02;17.40;65.90
27492;DHT22;14927;51.210;6.838;2022-10-31T05:41:47;17.40;66.00
27492;DHT22;14927;51.210;6.838;2022-10-31T05:44:33;17.40;66.00
27492;DHT22;14927;51.210;6.838;2022-10-31T05:47:17;17.40;66.10
27492;DHT22;14927;51.210;6.838;2022-10-31T05:50:02;17.30;66.10
27492;DHT22;14927;51.210;6.838;2022-10-31T05:52:47;17.30;66.10
27492;DHT22;14927;51.210;6.838;2022-10-31T05:55:32;17.30;66.00
27492;DHT22;14927;51.210;6.838;2022-10-31T05:58:16;17.30;66.00
27492;DHT22;14927;51.210;6.838;2022-10-31T06:01:01;17.40;66.10
27492;DHT22;14927;51.210;6.838;2022-10-31T06:03:46;17.30;66.00
27492;DHT22;14927;51.210;6.838;2022-10-31T06:06:30;17.30;66.00
27492;DHT22;14927;51.210;6.838;2022-10-31T06:09:15;17.30;66.10
27492;DHT22;14927;51.210;6.838;2022-10-31T06:12:00;17.30;66.20
27492;DHT22;14927;51.210;6.838;2022-10-31T06:14:44;17.30;66.20
27492;DHT22;14927;51.210;6.838;2022-10-31T06:17:29;17.30;66.20
27492;DHT22;14927;51.210;6.838;2022-10-31T06:20:13;17.30;66.20
27492;DHT22;14927;51.210;6.838;2022-10-31T06:22:58;17.30;66.20
27492;DHT22;14927;51.210;6.838;2022-10-31T06:25:43;17.20;66.20
27492;DHT22;14927;51.210;6.838;2022-10-31T06:28:33;17.20;66.30
27492;DHT22;14927;51.210;6.838;2022-10-31T06:31:17;17.20;66.30
27492;DHT22;14927;51.210;6.838;2022-10-31T06:34:02;17.20;66.30
27492;DHT22;14927;51.210;6.838;2022-10-31T06:36:47;17.20;67.00
27492;DHT22;14927;51.210;6.838;2022-10-31T06:39:32;17.20;66.20
27492;DHT22;14927;51.210;6.838;2022-10-31T06:42:16;17.20;66.20
27492;DHT22;14927;51.210;6.838;2022-10-31T06:45:01;17.20;66.10
27492;DHT22;14927;51.210;6.838;2022-10-31T06:47:51;17.20;66.10
27492;DHT22;14927;51.210;6.838;2022-10-31T06:50:36;17.10;66.20
27492;DHT22;14927;51.210;6.838;2022-10-31T06:53:21;17.10;66.10
27492;DHT22;14927;51.210;6.838;2022-10-31T06:56:06;17.10;66.20
27492;DHT22;14927;51.210;6.838;2022-10-31T06:58:51;17.10;66.20
27492;DHT22;14927;51.210;6.838;2022-10-31T07:01:35;17.10;66.40
27492;DHT22;14927;51.210;6.838;2022-10-31T07:04:20;17.10;66.40
27492;DHT22;14927;51.210;6.838;2022-10-31T07:07:05;17.00;66.40
27492;DHT22;14927;51.210;6.838;2022-10-31T07:09:50;17.00;66.60
27492;DHT22;14927;51.210;6.838;2022-10-31T07:12:34;17.00;66.60
27492;DHT22;14927;51.210;6.838;2022-10-31T07:15:19;17.00;67.50
27492;DHT22;14927;51.210;6.838;2022-10-31T07:18:06;17.00;66.70
27492;DHT22;14927;51.210;6.838;2022-10-31T07:20:52;17.00;66.70
27492;DHT22;14927;51.210;6.838;2022-10-31T07:23:37;17.00;66.80
27492;DHT22;14927;51.210;6.838;2022-10-31T07:26:21;17.00;66.90
27492;DHT22;14927;51.210;6.838;2022-10-31T07:29:06;17.00;67.10
27492;DHT22;14927;51.210;6.838;2022-10-31T07:31:51;17.00;67.30
27492;DHT22;14927;51.210;6.838;2022-10-31T07:34:35;17.00;67.30
27492;DHT22;14927;51.210;6.838;2022-10-31T07:37:20;17.00;67.40
27492;DHT22;14927;51.210;6.838;2022-10-31T07:40:06;17.00;67.30
27492;DHT22;14927;51.210;6.838;2022-10-31T07:42:53;17.00;67.40
27492;DHT22;14927;51.210;6.838;2022-10-31T07:45:37;17.00;67.40
27492;DHT22;14927;51.210;6.838;2022-10-31T07:48:22;17.00;67.50
27492;DHT22;14927;51.210;6.838;2022-10-31T07:51:07;17.00;67.60
27492;DHT22;14927;51.210;6.838;2022-10-31T07:53:52;17.10;67.70
27492;DHT22;14927;51.210;6.838;2022-10-31T07:56:36;17.10;67.80
27492;DHT22;14927;51.210;6.838;2022-10-31T07:59:21;17.10;68.00
27492;DHT22;14927;51.210;6.838;2022-10-31T08:02:07;17.10;68.10
27492;DHT22;14927;51.210;6.838;2022-10-31T08:04:52;17.20;68.10
27492;DHT22;14927;51.210;6.838;2022-10-31T08:07:37;17.20;68.20
27492;DHT22;14927;51.210;6.838;2022-10-31T08:10:22;17.20;68.30
27492;DHT22;14927;51.210;6.838;2022-10-31T08:13:09;17.20;68.40
27492;DHT22;14927;51.210;6.838;2022-10-31T08:15:54;17.30;68.60
27492;DHT22;14927;51.210;6.838;2022-10-31T08:18:40;17.30;68.70
27492;DHT22;14927;51.210;6.838;2022-10-31T08:21:25;17.30;68.70
27492;DHT22;14927;51.210;6.838;2022-10-31T08:24:09;17.40;68.80
27492;DHT22;14927;51.210;6.838;2022-10-31T08:26:54;17.50;68.80
27492;DHT22;14927;51.210;6.838;2022-10-31T08:29:39;17.50;68.70
27492;DHT22;14927;51.210;6.838;2022-10-31T08:32:24;17.60;68.60
27492;DHT22;14927;51.210;6.838;2022-10-31T08:35:08;17.60;68.60
27492;DHT22;14927;51.210;6.838;2022-10-31T08:37:54;17.70;68.60
27492;DHT22;14927;51.210;6.838;2022-10-31T08:40:39;17.70;68.70
27492;DHT22;14927;51.210;6.838;2022-10-31T08:43:24;17.80;68.60
27492;DHT22;14927;51.210;6.838;2022-10-31T08:46:08;17.80;68.40
27492;DHT22;14927;51.210;6.838;2022-10-31T08:48:53;17.90;68.40
27492;DHT22;14927;51.210;6.838;2022-10-31T08:51:37;17.90;68.30
27492;DHT22;14927;51.210;6.838;2022-10-31T08:54:22;18.00;68.20
27492;DHT22;14927;51.210;6.838;2022-10-31T08:57:07;18.00;68.10
27492;DHT22;14927;51.210;6.838;2022-10-31T08:59:51;18.10;67.90
27492;DHT22;14927;51.210;6.838;2022-10-31T09:02:36;18.10;67.70
27492;DHT22;14927;51.210;6.838;2022-10-31T09:05:22;18.20;67.40
27492;DHT22;14927;51.210;6.838;2022-10-31T09:08:07;18.30;67.20
27492;DHT22;14927;51.210;6.838;2022-10-31T09:10:56;18.40;67.10
27492;DHT22;14927;51.210;6.838;2022-10-31T09:13:41;18.40;66.70
27492;DHT22;14927;51.210;6.838;2022-10-31T09:16:25;18.50;66.50
27492;DHT22;14927;51.210;6.838;2022-10-31T09:19:10;18.50;66.20
27492;DHT22;14927;51.210;6.838;2022-10-31T09:21:54;18.50;66.00
27492;DHT22;14927;51.210;6.838;2022-10-31T09:24:39;18.60;65.70
27492;DHT22;14927;51.210;6.838;2022-10-31T09:27:24;18.60;65.50
27492;DHT22;14927;51.210;6.838;2022-10-31T09:30:09;18.70;65.40
27492;DHT22;14927;51.210;6.838;2022-10-31T09:32:58;18.80;65.40
27492;DHT22;14927;51.210;6.838;2022-10-31T09:35:43;18.80;65.20
27492;DHT22;14927;51.210;6.838;2022-10-31T09:38:28;18.90;65.30
27492;DHT22;14927;51.210;6.838;2022-10-31T09:52:18;19.10;64.90
27492;DHT22;14927;51.210;6.838;2022-10-31T09:58:26;19.20;64.40
27492;DHT22;14927;51.210;6.838;2022-10-31T10:01:49;19.30;64.20
27492;DHT22;14927;51.210;6.838;2022-10-31T10:05:00;19.40;63.50
27492;DHT22;14927;51.210;6.838;2022-10-31T10:15:06;19.60;63.20
27492;DHT22;14927;51.210;6.838;2022-10-31T10:18:32;19.70;63.20
27492;DHT22;14927;51.210;6.838;2022-10-31T10:28:09;19.90;62.70
27492;DHT22;14927;51.210;6.838;2022-10-31T10:31:31;20.00;62.60
27492;DHT22;14927;51.210;6.838;2022-10-31T10:34:26;20.10;62.40
27492;DHT22;14927;51.210;6.838;2022-10-31T10:37:32;20.10;62.20
27492;DHT22;14927;51.210;6.838;2022-10-31T10:40:24;20.20;61.80
27492;DHT22;14927;51.210;6.838;2022-10-31T10:43:24;20.30;62.00
27492;DHT22;14927;51.210;6.838;2022-10-31T10:46:29;20.30;61.40
27492;DHT22;14927;51.210;6.838;2022-10-31T10:49:50;20.40;61.30
27492;DHT22;14927;51.210;6.838;2022-10-31T10:52:59;20.50;61.30
27492;DHT22;14927;51.210;6.838;2022-10-31T10:56:16;20.50;60.90
27492;DHT22;14927;51.210;6.838;2022-10-31T10:59:21;20.60;61.20
27492;DHT22;14927;51.210;6.838;2022-10-31T11:02:26;20.70;61.20
27492;DHT22;14927;51.210;6.838;2022-10-31T11:05:36;20.70;60.70
27492;DHT22;14927;51.210;6.838;2022-10-31T11:11:27;20.90;60.80
27492;DHT22;14927;51.210;6.838;2022-10-31T11:14:16;20.90;60.30
27492;DHT22;14927;51.210;6.838;2022-10-31T11:17:14;21.00;60.50
27492;DHT22;14927;51.210;6.838;2022-10-31T11:23:17;21.20;60.00
27492;DHT22;14927;51.210;6.838;2022-10-31T11:26:05;21.20;59.70
27492;DHT22;14927;51.210;6.838;2022-10-31T11:28:57;21.30;59.80
27492;DHT22;14927;51.210;6.838;2022-10-31T11:31:44;21.40;59.60
27492;DHT22;14927;51.210;6.838;2022-10-31T11:34:36;21.50;59.50
27492;DHT22;14927;51.210;6.838;2022-10-31T11:37:28;21.60;59.10
27492;DHT22;14927;51.210;6.838;2022-10-31T11:40:22;21.60;59.00
27492;DHT22;14927;51.210;6.838;2022-10-31T11:43:15;21.70;58.70
27492;DHT22;14927;51.210;6.838;2022-10-31T11:46:10;21.80;58.90
27492;DHT22;14927;51.210;6.838;2022-10-31T11:48:56;21.80;58.00
27492;DHT22;14927;51.210;6.838;2022-10-31T11:51:40;21.90;58.00
27492;DHT22;14927;51.210;6.838;2022-10-31T11:54:39;22.00;58.50
27492;DHT22;14927;51.210;6.838;2022-10-31T11:57:41;22.00;57.60
27492;DHT22;14927;51.210;6.838;2022-10-31T12:00:38;22.10;57.70
27492;DHT22;14927;51.210;6.838;2022-10-31T12:09:18;22.30;57.20
27492;DHT22;14927;51.210;6.838;2022-10-31T12:18:24;22.50;55.20
27492;DHT22;14927;51.210;6.838;2022-10-31T12:21:15;22.60;55.00
27492;DHT22;14927;51.210;6.838;2022-10-31T12:25:18;22.70;55.30
27492;DHT22;14927;51.210;6.838;2022-10-31T12:31:37;23.00;53.80
27492;DHT22;14927;51.210;6.838;2022-10-31T12:38:38;23.20;52.30
27492;DHT22;14927;51.210;6.838;2022-10-31T12:42:01;23.30;52.00
27492;DHT22;14927;51.210;6.838;2022-10-31T12:44:59;23.40;52.00
27492;DHT22;14927;51.210;6.838;2022-10-31T12:54:55;23.60;51.10
27492;DHT22;14927;51.210;6.838;2022-10-31T12:57:51;23.70;50.80
27492;DHT22;14927;51.210;6.838;2022-10-31T13:00:41;23.90;51.00
27492;DHT22;14927;51.210;6.838;2022-10-31T13:03:32;24.00;50.70
27492;DHT22;14927;51.210;6.838;2022-10-31T13:06:38;24.00;51.50
27492;DHT22;14927;51.210;6.838;2022-10-31T13:12:41;24.20;49.70
27492;DHT22;14927;51.210;6.838;2022-10-31T13:15:30;24.30;50.00
27492;DHT22;14927;51.210;6.838;2022-10-31T13:18:37;24.30;49.70
27492;DHT22;14927;51.210;6.838;2022-10-31T13:21:41;24.30;49.30
27492;DHT22;14927;51.210;6.838;2022-10-31T13:28:21;24.40;49.20
27492;DHT22;14927;51.210;6.838;2022-10-31T13:31:10;24.40;48.90
27492;DHT22;14927;51.210;6.838;2022-10-31T13:34:04;24.50;49.70
27492;DHT22;14927;51.210;6.838;2022-10-31T13:44:04;24.60;49.00
27492;DHT22;14927;51.210;6.838;2022-10-31T13:46:57;24.60;47.80
27492;DHT22;14927;51.210;6.838;2022-10-31T13:49:41;24.50;48.30
27492;DHT22;14927;51.210;6.838;2022-10-31T13:52:26;24.50;48.20
27492;DHT22;14927;51.210;6.838;2022-10-31T13:58:26;24.40;47.50
27492;DHT22;14927;51.210;6.838;2022-10-31T14:01:16;24.40;47.90
27492;DHT22;14927;51.210;6.838;2022-10-31T14:07:14;24.40;47.80
27492;DHT22;14927;51.210;6.838;2022-10-31T14:10:25;24.40;47.60
27492;DHT22;14927;51.210;6.838;2022-10-31T14:16:27;24.40;47.90
27492;DHT22;14927;51.210;6.838;2022-10-31T14:19:16;24.40;48.20
27492;DHT22;14927;51.210;6.838;2022-10-31T14:22:02;24.40;48.10
27492;DHT22;14927;51.210;6.838;2022-10-31T14:24:47;24.30;48.10
27492;DHT22;14927;51.210;6.838;2022-10-31T14:27:43;24.30;48.20
27492;DHT22;14927;51.210;6.838;2022-10-31T14:30:30;24.30;48.30
27492;DHT22;14927;51.210;6.838;2022-10-31T14:33:19;24.30;48.20
27492;DHT22;14927;51.210;6.838;2022-10-31T14:36:08;24.30;47.90
27492;DHT22;14927;51.210;6.838;2022-10-31T14:51:39;24.20;48.10
27492;DHT22;14927;51.210;6.838;2022-10-31T14:54:30;24.10;48.00
27492;DHT22;14927;51.210;6.838;2022-10-31T14:57:29;24.10;48.20
27492;DHT22;14927;51.210;6.838;2022-10-31T15:00:18;24.00;47.90
27492;DHT22;14927;51.210;6.838;2022-10-31T15:06:11;24.00;47.90
27492;DHT22;14927;51.210;6.838;2022-10-31T15:08:56;23.90;48.00
27492;DHT22;14927;51.210;6.838;2022-10-31T15:11:41;23.90;48.10
27492;DHT22;14927;51.210;6.838;2022-10-31T15:14:28;23.90;48.00
27492;DHT22;14927;51.210;6.838;2022-10-31T15:17:15;23.90;47.90
27492;DHT22;14927;51.210;6.838;2022-10-31T15:20:00;23.80;47.80
27492;DHT22;14927;51.210;6.838;2022-10-31T15:22:46;23.80;47.70
27492;DHT22;14927;51.210;6.838;2022-10-31T15:25:33;23.80;47.70
27492;DHT22;14927;51.210;6.838;2022-10-31T15:28:24;23.70;47.50
27492;DHT22;14927;51.210;6.838;2022-10-31T15:31:12;23.70;47.50
27492;DHT22;14927;51.210;6.838;2022-10-31T15:34:01;23.70;48.30
27492;DHT22;14927;51.210;6.838;2022-10-31T15:36:49;23.70;48.50
27492;DHT22;14927;51.210;6.838;2022-10-31T15:39:34;23.70;48.00
27492;DHT22;14927;51.210;6.838;2022-10-31T15:45:19;23.50;47.50
27492;DHT22;14927;51.210;6.838;2022-10-31T15:48:22;23.50;47.20
27492;DHT22;14927;51.210;6.838;2022-10-31T15:51:09;23.50;47.00
27492;DHT22;14927;51.210;6.838;2022-10-31T15:53:54;23.50;47.40
27492;DHT22;14927;51.210;6.838;2022-10-31T15:56:43;23.40;47.30
27492;DHT22;14927;51.210;6.838;2022-10-31T15:59:28;23.40;47.10
27492;DHT22;14927;51.210;6.838;2022-10-31T16:02:18;23.30;47.20
27492;DHT22;14927;51.210;6.838;2022-10-31T16:05:16;23.30;47.20
27492;DHT22;14927;51.210;6.838;2022-10-31T16:08:03;23.30;46.90
27492;DHT22;14927;51.210;6.838;2022-10-31T16:10:48;23.30;47.30
27492;DHT22;14927;51.210;6.838;2022-10-31T16:13:40;23.20;47.20
27492;DHT22;14927;51.210;6.838;2022-10-31T16:16:26;23.20;47.00
27492;DHT22;14927;51.210;6.838;2022-10-31T16:22:12;23.10;46.80
27492;DHT22;14927;51.210;6.838;2022-10-31T16:27:54;23.10;47.00
27492;DHT22;14927;51.210;6.838;2022-10-31T16:30:48;23.00;47.10
27492;DHT22;14927;51.210;6.838;2022-10-31T16:33:36;23.00;46.90
27492;DHT22;14927;51.210;6.838;2022-10-31T16:36:39;23.00;47.10
27492;DHT22;14927;51.210;6.838;2022-10-31T16:39:24;22.90;47.00
27492;DHT22;14927;51.210;6.838;2022-10-31T16:42:09;22.90;47.20
27492;DHT22;14927;51.210;6.838;2022-10-31T16:44:54;22.90;47.20
27492;DHT22;14927;51.210;6.838;2022-10-31T16:47:39;22.90;47.20
27492;DHT22;14927;51.210;6.838;2022-10-31T16:50:25;22.80;47.20
27492;DHT22;14927;51.210;6.838;2022-10-31T16:53:11;22.80;47.20
27492;DHT22;14927;51.210;6.838;2022-10-31T16:55:58;22.80;47.20
27492;DHT22;14927;51.210;6.838;2022-10-31T16:58:43;22.70;47.20
27492;DHT22;14927;51.210;6.838;2022-10-31T17:01:29;22.70;47.30
27492;DHT22;14927;51.210;6.838;2022-10-31T17:04:14;22.70;47.30
27492;DHT22;14927;51.210;6.838;2022-10-31T17:06:59;22.60;47.30
27492;DHT22;14927;51.210;6.838;2022-10-31T17:09:44;22.60;47.30
27492;DHT22;14927;51.210;6.838;2022-10-31T17:12:29;22.60;47.40
27492;DHT22;14927;51.210;6.838;2022-10-31T17:15:19;22.50;47.30
27492;DHT22;14927;51.210;6.838;2022-10-31T17:18:11;22.50;47.30
27492;DHT22;14927;51.210;6.838;2022-10-31T17:20:59;22.50;47.30
27492;DHT22;14927;51.210;6.838;2022-10-31T17:23:45;22.50;47.40
27492;DHT22;14927;51.210;6.838;2022-10-31T17:26:29;22.40;47.50
27492;DHT22;14927;51.210;6.838;2022-10-31T17:29:14;22.40;47.60
27492;DHT22;14927;51.210;6.838;2022-10-31T17:31:59;22.40;47.70
27492;DHT22;14927;51.210;6.838;2022-10-31T17:34:44;22.40;47.60
27492;DHT22;14927;51.210;6.838;2022-10-31T17:37:28;22.40;47.80
27492;DHT22;14927;51.210;6.838;2022-10-31T17:40:16;22.30;47.80
27492;DHT22;14927;51.210;6.838;2022-10-31T17:43:04;22.30;47.80
27492;DHT22;14927;51.210;6.838;2022-10-31T17:45:48;22.30;47.80
27492;DHT22;14927;51.210;6.838;2022-10-31T17:48:34;22.20;47.70
27492;DHT22;14927;51.210;6.838;2022-10-31T17:51:19;22.20;47.70
27492;DHT22;14927;51.210;6.838;2022-10-31T17:54:04;22.20;48.30
27492;DHT22;14927;51.210;6.838;2022-10-31T17:56:53;22.20;47.90
27492;DHT22;14927;51.210;6.838;2022-10-31T17:59:38;22.20;47.90
27492;DHT22;14927;51.210;6.838;2022-10-31T18:02:22;22.10;47.80
27492;DHT22;14927;51.210;6.838;2022-10-31T18:05:07;22.10;47.90
27492;DHT22;14927;51.210;6.838;2022-10-31T18:07:52;22.10;47.90
27492;DHT22;14927;51.210;6.838;2022-10-31T18:10:37;22.10;47.90
27492;DHT22;14927;51.210;6.838;2022-10-31T18:13:22;22.00;48.00
27492;DHT22;14927;51.210;6.838;2022-10-31T18:16:16;22.00;48.00
27492;DHT22;14927;51.210;6.838;2022-10-31T18:19:02;22.00;48.00
27492;DHT22;14927;51.210;6.838;2022-10-31T18:21:48;22.00;48.20
27492;DHT22;14927;51.210;6.838;2022-10-31T18:24:33;22.00;48.20
27492;DHT22;14927;51.210;6.838;2022-10-31T18:27:18;21.90;48.30
27492;DHT22;14927;51.210;6.838;2022-10-31T18:30:03;21.90;48.30
27492;DHT22;14927;51.210;6.838;2022-10-31T18:32:49;21.90;48.40
27492;DHT22;14927;51.210;6.838;2022-10-31T18:35:35;21.80;48.40
27492;DHT22;14927;51.210;6.838;2022-10-31T18:38:22;21.80;48.50
27492;DHT22;14927;51.210;6.838;2022-10-31T18:41:07;21.80;48.70
27492;DHT22;14927;51.210;6.838;2022-10-31T18:43:57;21.70;48.70
27492;DHT22;14927;51.210;6.838;2022-10-31T18:46:43;21.70;48.80
27492;DHT22;14927;51.210;6.838;2022-10-31T18:49:29;21.70;48.90
27492;DHT22;14927;51.210;6.838;2022-10-31T18:52:15;21.70;49.00
27492;DHT22;14927;51.210;6.838;2022-10-31T18:55:00;21.60;49.00
27492;DHT22;14927;51.210;6.838;2022-10-31T18:57:44;21.50;49.00
27492;DHT22;14927;51.210;6.838;2022-10-31T19:00:29;21.50;49.20
27492;DHT22;14927;51.210;6.838;2022-10-31T19:03:14;21.50;49.90
27492;DHT22;14927;51.210;6.838;2022-10-31T19:05:59;21.50;49.30
27492;DHT22;14927;51.210;6.838;2022-10-31T19:08:44;21.40;49.40
27492;DHT22;14927;51.210;6.838;2022-10-31T19:11:31;21.40;49.50
27492;DHT22;14927;51.210;6.838;2022-10-31T19:14:16;21.40;49.60
27492;DHT22;14927;51.210;6.838;2022-10-31T19:17:01;21.30;49.60
27492;DHT22;14927;51.210;6.838;2022-10-31T19:19:45;21.30;49.80
27492;DHT22;14927;51.210;6.838;2022-10-31T19:22:30;21.30;49.90
27492;DHT22;14927;51.210;6.838;2022-10-31T19:25:15;21.30;49.90
27492;DHT22;14927;51.210;6.838;2022-10-31T19:27:59;21.20;49.90
27492;DHT22;14927;51.210;6.838;2022-10-31T19:30:51;21.20;49.90
27492;DHT22;14927;51.210;6.838;2022-10-31T19:33:37;21.20;50.00
27492;DHT22;14927;51.210;6.838;2022-10-31T19:36:22;21.10;50.00
27492;DHT22;14927;51.210;6.838;2022-10-31T19:39:08;21.10;50.10
27492;DHT22;14927;51.210;6.838;2022-10-31T19:41:52;21.10;50.10
27492;DHT22;14927;51.210;6.838;2022-10-31T19:44:37;21.10;50.20
27492;DHT22;14927;51.210;6.838;2022-10-31T19:47:22;21.10;50.90
27492;DHT22;14927;51.210;6.838;2022-10-31T19:50:07;21.10;50.30
27492;DHT22;14927;51.210;6.838;2022-10-31T19:52:52;21.10;50.40
27492;DHT22;14927;51.210;6.838;2022-10-31T19:55:40;21.10;50.40
27492;DHT22;14927;51.210;6.838;2022-10-31T19:58:25;21.10;50.50
27492;DHT22;14927;51.210;6.838;2022-10-31T20:01:14;21.00;50.50
27492;DHT22;14927;51.210;6.838;2022-10-31T20:04:00;21.00;50.60
27492;DHT22;14927;51.210;6.838;2022-10-31T20:06:45;21.00;50.60
27492;DHT22;14927;51.210;6.838;2022-10-31T20:09:29;21.00;50.70
27492;DHT22;14927;51.210;6.838;2022-10-31T20:12:14;21.00;50.80
27492;DHT22;14927;51.210;6.838;2022-10-31T20:14:59;21.00;50.80